sensor_id;sensor_type;location;lat;lon;timestamp;P1;durP1;ratioP1;P2;durP2;ratioP2
37049;SDS011;22958;51.232;6.826;2023-05-20T00:00:25;8.90;;;2.67;;
37049;SDS011;22958;51.232;6.826;2023-05-20T00:02:51;6.17;;;2.10;;
37049;SDS011;22958;51.232;6.826;2023-05-20T00:05:17;8.53;;;2.23;;
37049;SDS011;22958;51.232;6.826;2023-05-20T00:07:42;6.23;;;2.37;;
37049;SDS011;22958;51.232;6.826;2023-05-20T00:10:08;6.63;;;1.93;;
37049;SDS011;22958;51.232;6.826;2023-05-20T00:12:33;4.77;;;1.97;;
37049;SDS011;22958;51.232;6.826;2023-05-20T00:14:59;8.70;;;2.87;;
37049;SDS011;22958;51.232;6.826;2023-05-20T00:17:25;8.38;;;2.70;;
37049;SDS011;22958;51.232;6.826;2023-05-20T00:19:52;9.45;;;2.53;;
37049;SDS011;22958;51.232;6.826;2023-05-20T00:22:18;8.33;;;2.97;;
37049;SDS011;22958;51.232;6.826;2023-05-20T00:24:43;4.83;;;2.40;;
37049;SDS011;22958;51.232;6.826;2023-05-20T00:27:09;8.93;;;2.27;;
37049;SDS011;22958;51.232;6.826;2023-05-20T00:29:34;5.70;;;2.17;;
37049;SDS011;22958;51.232;6.826;2023-05-20T00:32:00;10.73;;;2.30;;
37049;SDS011;22958;51.232;6.826;2023-05-20T00:34:25;11.07;;;2.73;;
37049;SDS011;22958;51.232;6.826;2023-05-20T00:36:51;9.40;;;2.97;;
37049;SDS011;22958;51.232;6.826;2023-05-20T00:39:16;11.90;;;2.40;;
37049;SDS011;22958;51.232;6.826;2023-05-20T00:41:42;7.70;;;2.53;;
37049;SDS011;22958;51.232;6.826;2023-05-20T00:44:07;8.60;;;2.30;;
37049;SDS011;22958;51.232;6.826;2023-05-20T00:46:34;6.32;;;2.58;;
37049;SDS011;22958;51.232;6.826;2023-05-20T00:48:59;7.90;;;3.43;;
37049;SDS011;22958;51.232;6.826;2023-05-20T00:51:25;7.43;;;2.65;;
37049;SDS011;22958;51.232;6.826;2023-05-20T00:53:51;8.40;;;2.63;;
37049;SDS011;22958;51.232;6.826;2023-05-20T00:56:17;10.00;;;3.00;;
37049;SDS011;22958;51.232;6.826;2023-05-20T00:58:43;15.82;;;3.10;;
37049;SDS011;22958;51.232;6.826;2023-05-20T01:01:09;7.30;;;3.27;;
37049;SDS011;22958;51.232;6.826;2023-05-20T01:03:35;11.00;;;2.73;;
37049;SDS011;22958;51.232;6.826;2023-05-20T01:06:01;8.17;;;3.00;;
37049;SDS011;22958;51.232;6.826;2023-05-20T01:08:27;10.65;;;2.80;;
37049;SDS011;22958;51.232;6.826;2023-05-20T01:10:57;10.10;;;3.07;;
37049;SDS011;22958;51.232;6.826;2023-05-20T01:13:32;6.05;;;2.95;;
37049;SDS011;22958;51.232;6.826;2023-05-20T01:16:03;5.88;;;3.03;;
37049;SDS011;22958;51.232;6.826;2023-05-20T01:18:29;15.50;;;3.47;;
37049;SDS011;22958;51.232;6.826;2023-05-20T01:20:56;13.18;;;3.17;;
37049;SDS011;22958;51.232;6.826;2023-05-20T01:23:32;9.40;;;2.92;;
37049;SDS011;22958;51.232;6.826;2023-05-20T01:26:05;7.65;;;3.10;;
37049;SDS011;22958;51.232;6.826;2023-05-20T01:28:31;8.85;;;3.15;;
37049;SDS011;22958;51.232;6.826;2023-05-20T01:31:01;12.00;;;3.47;;
37049;SDS011;22958;51.232;6.826;2023-05-20T01:33:28;8.45;;;3.03;;
37049;SDS011;22958;51.232;6.826;2023-05-20T01:35:55;11.55;;;4.00;;
37049;SDS011;22958;51.232;6.826;2023-05-20T01:38:22;11.27;;;3.58;;
37049;SDS011;22958;51.232;6.826;2023-05-20T01:43:16;11.55;;;3.10;;
37049;SDS011;22958;51.232;6.826;2023-05-20T01:45:42;9.13;;;3.17;;
37049;SDS011;22958;51.232;6.826;2023-05-20T01:48:09;10.52;;;3.55;;
37049;SDS011;22958;51.232;6.826;2023-05-20T01:50:35;6.75;;;3.20;;
37049;SDS011;22958;51.232;6.826;2023-05-20T01:53:01;5.38;;;2.72;;
37049;SDS011;22958;51.232;6.826;2023-05-20T01:55:27;11.40;;;3.90;;
37049;SDS011;22958;51.232;6.826;2023-05-20T01:57:52;8.30;;;3.00;;
37049;SDS011;22958;51.232;6.826;2023-05-20T02:00:18;6.27;;;3.17;;
37049;SDS011;22958;51.232;6.826;2023-05-20T02:02:44;5.67;;;2.67;;
37049;SDS011;22958;51.232;6.826;2023-05-20T02:05:09;14.27;;;3.73;;
37049;SDS011;22958;51.232;6.826;2023-05-20T02:07:35;4.90;;;3.17;;
37049;SDS011;22958;51.232;6.826;2023-05-20T02:10:00;8.20;;;2.83;;
37049;SDS011;22958;51.232;6.826;2023-05-20T02:12:26;9.53;;;3.70;;
37049;SDS011;22958;51.232;6.826;2023-05-20T02:14:52;11.03;;;3.57;;
37049;SDS011;22958;51.232;6.826;2023-05-20T02:17:17;9.00;;;3.63;;
37049;SDS011;22958;51.232;6.826;2023-05-20T02:19:43;12.47;;;3.80;;
37049;SDS011;22958;51.232;6.826;2023-05-20T02:22:10;7.07;;;3.50;;
37049;SDS011;22958;51.232;6.826;2023-05-20T02:24:35;8.93;;;3.53;;
37049;SDS011;22958;51.232;6.826;2023-05-20T02:27:01;8.57;;;3.80;;
37049;SDS011;22958;51.232;6.826;2023-05-20T02:29:28;7.88;;;3.42;;
37049;SDS011;22958;51.232;6.826;2023-05-20T02:31:54;8.83;;;3.53;;
37049;SDS011;22958;51.232;6.826;2023-05-20T02:34:20;10.50;;;3.73;;
37049;SDS011;22958;51.232;6.826;2023-05-20T02:36:45;9.00;;;3.73;;
37049;SDS011;22958;51.232;6.826;2023-05-20T02:39:11;9.83;;;4.30;;
37049;SDS011;22958;51.232;6.826;2023-05-20T02:41:37;8.23;;;3.83;;
37049;SDS011;22958;51.232;6.826;2023-05-20T02:44:02;20.23;;;4.00;;
37049;SDS011;22958;51.232;6.826;2023-05-20T02:46:28;12.97;;;4.10;;
37049;SDS011;22958;51.232;6.826;2023-05-20T02:48:55;8.20;;;3.63;;
37049;SDS011;22958;51.232;6.826;2023-05-20T02:51:20;12.47;;;4.03;;
37049;SDS011;22958;51.232;6.826;2023-05-20T02:53:46;5.00;;;2.77;;
37049;SDS011;22958;51.232;6.826;2023-05-20T02:56:12;18.87;;;4.03;;
37049;SDS011;22958;51.232;6.826;2023-05-20T02:58:37;13.30;;;3.60;;
37049;SDS011;22958;51.232;6.826;2023-05-20T03:01:03;11.60;;;3.40;;
37049;SDS011;22958;51.232;6.826;2023-05-20T03:03:29;9.53;;;3.27;;
37049;SDS011;22958;51.232;6.826;2023-05-20T03:05:55;12.53;;;4.13;;
37049;SDS011;22958;51.232;6.826;2023-05-20T03:08:21;7.47;;;3.70;;
37049;SDS011;22958;51.232;6.826;2023-05-20T03:10:47;12.75;;;3.55;;
37049;SDS011;22958;51.232;6.826;2023-05-20T03:13:13;7.47;;;3.00;;
37049;SDS011;22958;51.232;6.826;2023-05-20T03:15:42;10.43;;;3.60;;
37049;SDS011;22958;51.232;6.826;2023-05-20T03:18:11;8.48;;;3.50;;
37049;SDS011;22958;51.232;6.826;2023-05-20T03:20:37;8.02;;;3.55;;
37049;SDS011;22958;51.232;6.826;2023-05-20T03:23:04;8.77;;;3.22;;
37049;SDS011;22958;51.232;6.826;2023-05-20T03:25:30;7.07;;;3.53;;
37049;SDS011;22958;51.232;6.826;2023-05-20T03:27:56;7.63;;;4.10;;
37049;SDS011;22958;51.232;6.826;2023-05-20T03:30:24;9.93;;;3.55;;
37049;SDS011;22958;51.232;6.826;2023-05-20T03:32:51;7.88;;;4.00;;
37049;SDS011;22958;51.232;6.826;2023-05-20T03:35:17;10.38;;;4.20;;
37049;SDS011;22958;51.232;6.826;2023-05-20T03:37:42;11.93;;;3.90;;
37049;SDS011;22958;51.232;6.826;2023-05-20T03:40:08;9.77;;;4.37;;
37049;SDS011;22958;51.232;6.826;2023-05-20T03:42:34;11.52;;;3.70;;
37049;SDS011;22958;51.232;6.826;2023-05-20T03:45:00;9.43;;;3.78;;
37049;SDS011;22958;51.232;6.826;2023-05-20T03:47:26;9.97;;;4.47;;
37049;SDS011;22958;51.232;6.826;2023-05-20T03:49:52;9.43;;;4.60;;
37049;SDS011;22958;51.232;6.826;2023-05-20T03:52:18;9.13;;;4.37;;
37049;SDS011;22958;51.232;6.826;2023-05-20T03:54:43;13.10;;;4.23;;
37049;SDS011;22958;51.232;6.826;2023-05-20T03:57:09;10.27;;;3.53;;
37049;SDS011;22958;51.232;6.826;2023-05-20T03:59:35;10.43;;;3.70;;
37049;SDS011;22958;51.232;6.826;2023-05-20T04:02:01;7.60;;;3.92;;
37049;SDS011;22958;51.232;6.826;2023-05-20T04:04:27;12.80;;;3.80;;
37049;SDS011;22958;51.232;6.826;2023-05-20T04:06:53;10.77;;;3.67;;
37049;SDS011;22958;51.232;6.826;2023-05-20T04:09:20;8.43;;;3.30;;
37049;SDS011;22958;51.232;6.826;2023-05-20T04:11:46;13.40;;;3.37;;
37049;SDS011;22958;51.232;6.826;2023-05-20T04:14:11;10.67;;;3.87;;
37049;SDS011;22958;51.232;6.826;2023-05-20T04:16:37;9.57;;;3.90;;
37049;SDS011;22958;51.232;6.826;2023-05-20T04:19:03;7.80;;;3.28;;
37049;SDS011;22958;51.232;6.826;2023-05-20T04:21:28;6.43;;;3.23;;
37049;SDS011;22958;51.232;6.826;2023-05-20T04:23:55;8.10;;;3.35;;
37049;SDS011;22958;51.232;6.826;2023-05-20T04:26:20;12.97;;;3.77;;
37049;SDS011;22958;51.232;6.826;2023-05-20T04:28:46;13.40;;;3.60;;
37049;SDS011;22958;51.232;6.826;2023-05-20T04:31:13;6.65;;;3.50;;
37049;SDS011;22958;51.232;6.826;2023-05-20T04:33:39;8.10;;;3.03;;
37049;SDS011;22958;51.232;6.826;2023-05-20T04:36:05;6.27;;;3.23;;
37049;SDS011;22958;51.232;6.826;2023-05-20T04:38:33;10.88;;;3.30;;
37049;SDS011;22958;51.232;6.826;2023-05-20T04:40:59;8.65;;;3.15;;
37049;SDS011;22958;51.232;6.826;2023-05-20T04:43:26;8.60;;;3.50;;
37049;SDS011;22958;51.232;6.826;2023-05-20T04:45:58;6.93;;;2.97;;
37049;SDS011;22958;51.232;6.826;2023-05-20T04:48:25;10.57;;;3.38;;
37049;SDS011;22958;51.232;6.826;2023-05-20T04:50:51;8.07;;;3.47;;
37049;SDS011;22958;51.232;6.826;2023-05-20T04:53:18;4.97;;;3.15;;
37049;SDS011;22958;51.232;6.826;2023-05-20T04:55:45;7.40;;;3.10;;
37049;SDS011;22958;51.232;6.826;2023-05-20T04:58:11;13.03;;;3.80;;
37049;SDS011;22958;51.232;6.826;2023-05-20T05:00:41;7.30;;;2.80;;
37049;SDS011;22958;51.232;6.826;2023-05-20T05:03:07;8.10;;;3.72;;
37049;SDS011;22958;51.232;6.826;2023-05-20T05:05:34;10.40;;;2.97;;
37049;SDS011;22958;51.232;6.826;2023-05-20T05:08:01;6.80;;;3.08;;
37049;SDS011;22958;51.232;6.826;2023-05-20T05:10:27;8.80;;;3.20;;
37049;SDS011;22958;51.232;6.826;2023-05-20T05:12:54;8.40;;;3.40;;
37049;SDS011;22958;51.232;6.826;2023-05-20T05:15:19;7.87;;;3.00;;
37049;SDS011;22958;51.232;6.826;2023-05-20T05:17:45;10.40;;;3.27;;
37049;SDS011;22958;51.232;6.826;2023-05-20T05:20:10;11.23;;;3.27;;
37049;SDS011;22958;51.232;6.826;2023-05-20T05:22:36;6.70;;;3.50;;
37049;SDS011;22958;51.232;6.826;2023-05-20T05:25:04;6.43;;;3.17;;
37049;SDS011;22958;51.232;6.826;2023-05-20T05:27:30;9.40;;;3.45;;
37049;SDS011;22958;51.232;6.826;2023-05-20T05:29:56;9.77;;;3.23;;
37049;SDS011;22958;51.232;6.826;2023-05-20T05:32:21;9.50;;;3.13;;
37049;SDS011;22958;51.232;6.826;2023-05-20T05:34:47;10.40;;;3.37;;
37049;SDS011;22958;51.232;6.826;2023-05-20T05:37:13;7.87;;;3.40;;
37049;SDS011;22958;51.232;6.826;2023-05-20T05:39:38;6.00;;;3.37;;
37049;SDS011;22958;51.232;6.826;2023-05-20T05:42:04;9.17;;;3.37;;
37049;SDS011;22958;51.232;6.826;2023-05-20T05:44:29;9.03;;;3.80;;
37049;SDS011;22958;51.232;6.826;2023-05-20T05:46:55;7.07;;;3.70;;
37049;SDS011;22958;51.232;6.826;2023-05-20T05:49:21;14.17;;;3.57;;
37049;SDS011;22958;51.232;6.826;2023-05-20T05:51:46;7.63;;;3.40;;
37049;SDS011;22958;51.232;6.826;2023-05-20T05:54:12;9.93;;;4.00;;
37049;SDS011;22958;51.232;6.826;2023-05-20T05:56:37;10.37;;;3.67;;
37049;SDS011;22958;51.232;6.826;2023-05-20T05:59:03;10.20;;;3.30;;
37049;SDS011;22958;51.232;6.826;2023-05-20T06:01:29;9.27;;;3.83;;
37049;SDS011;22958;51.232;6.826;2023-05-20T06:03:54;14.90;;;3.87;;
37049;SDS011;22958;51.232;6.826;2023-05-20T06:06:20;7.03;;;3.70;;
37049;SDS011;22958;51.232;6.826;2023-05-20T06:08:46;9.77;;;3.37;;
37049;SDS011;22958;51.232;6.826;2023-05-20T06:11:11;15.53;;;3.30;;
37049;SDS011;22958;51.232;6.826;2023-05-20T06:13:37;6.93;;;3.37;;
37049;SDS011;22958;51.232;6.826;2023-05-20T06:16:02;13.13;;;3.83;;
37049;SDS011;22958;51.232;6.826;2023-05-20T06:18:28;12.57;;;3.37;;
37049;SDS011;22958;51.232;6.826;2023-05-20T06:20:57;6.07;;;3.07;;
37049;SDS011;22958;51.232;6.826;2023-05-20T06:23:23;6.10;;;3.10;;
37049;SDS011;22958;51.232;6.826;2023-05-20T06:25:50;8.25;;;3.20;;
37049;SDS011;22958;51.232;6.826;2023-05-20T06:28:16;6.68;;;3.28;;
37049;SDS011;22958;51.232;6.826;2023-05-20T06:30:41;9.33;;;2.53;;
37049;SDS011;22958;51.232;6.826;2023-05-20T06:33:07;8.37;;;3.10;;
37049;SDS011;22958;51.232;6.826;2023-05-20T06:35:33;4.57;;;2.63;;
37049;SDS011;22958;51.232;6.826;2023-05-20T06:37:58;9.80;;;4.17;;
37049;SDS011;22958;51.232;6.826;2023-05-20T06:42:51;9.95;;;3.58;;
37049;SDS011;22958;51.232;6.826;2023-05-20T06:45:16;12.33;;;3.73;;
37049;SDS011;22958;51.232;6.826;2023-05-20T06:47:43;8.07;;;3.37;;
37049;SDS011;22958;51.232;6.826;2023-05-20T06:50:09;8.77;;;3.40;;
37049;SDS011;22958;51.232;6.826;2023-05-20T06:52:36;9.52;;;4.18;;
37049;SDS011;22958;51.232;6.826;2023-05-20T06:55:02;7.50;;;3.30;;
37049;SDS011;22958;51.232;6.826;2023-05-20T06:57:28;11.00;;;3.50;;
37049;SDS011;22958;51.232;6.826;2023-05-20T06:59:54;7.00;;;3.30;;
37049;SDS011;22958;51.232;6.826;2023-05-20T07:02:20;7.27;;;3.23;;
37049;SDS011;22958;51.232;6.826;2023-05-20T07:04:46;4.70;;;3.10;;
37049;SDS011;22958;51.232;6.826;2023-05-20T07:07:11;7.97;;;3.80;;
37049;SDS011;22958;51.232;6.826;2023-05-20T07:09:37;8.93;;;3.13;;
37049;SDS011;22958;51.232;6.826;2023-05-20T07:12:02;10.13;;;3.60;;
37049;SDS011;22958;51.232;6.826;2023-05-20T07:14:28;9.60;;;3.70;;
37049;SDS011;22958;51.232;6.826;2023-05-20T07:16:53;8.53;;;3.30;;
37049;SDS011;22958;51.232;6.826;2023-05-20T07:19:19;8.37;;;3.30;;
37049;SDS011;22958;51.232;6.826;2023-05-20T07:21:44;20.67;;;3.90;;
37049;SDS011;22958;51.232;6.826;2023-05-20T07:24:10;13.17;;;3.63;;
37049;SDS011;22958;51.232;6.826;2023-05-20T07:26:35;14.73;;;3.33;;
37049;SDS011;22958;51.232;6.826;2023-05-20T07:29:02;6.57;;;3.23;;
37049;SDS011;22958;51.232;6.826;2023-05-20T07:33:54;11.77;;;3.55;;
37049;SDS011;22958;51.232;6.826;2023-05-20T07:36:20;9.10;;;3.40;;
37049;SDS011;22958;51.232;6.826;2023-05-20T07:38:45;6.53;;;3.17;;
37049;SDS011;22958;51.232;6.826;2023-05-20T07:41:11;7.80;;;3.53;;
37049;SDS011;22958;51.232;6.826;2023-05-20T07:43:36;6.83;;;3.43;;
37049;SDS011;22958;51.232;6.826;2023-05-20T07:46:02;8.23;;;3.37;;
37049;SDS011;22958;51.232;6.826;2023-05-20T07:48:27;11.67;;;3.43;;
37049;SDS011;22958;51.232;6.826;2023-05-20T07:50:53;9.03;;;3.57;;
37049;SDS011;22958;51.232;6.826;2023-05-20T07:53:21;6.32;;;3.92;;
37049;SDS011;22958;51.232;6.826;2023-05-20T07:55:47;9.17;;;4.20;;
37049;SDS011;22958;51.232;6.826;2023-05-20T07:58:12;9.17;;;3.83;;
37049;SDS011;22958;51.232;6.826;2023-05-20T08:00:38;12.97;;;3.90;;
37049;SDS011;22958;51.232;6.826;2023-05-20T08:03:03;11.90;;;4.03;;
37049;SDS011;22958;51.232;6.826;2023-05-20T08:05:29;15.93;;;3.50;;
37049;SDS011;22958;51.232;6.826;2023-05-20T08:07:54;8.30;;;4.13;;
37049;SDS011;22958;51.232;6.826;2023-05-20T08:10:20;6.70;;;3.90;;
37049;SDS011;22958;51.232;6.826;2023-05-20T08:12:45;6.63;;;4.23;;
37049;SDS011;22958;51.232;6.826;2023-05-20T08:15:11;10.40;;;4.60;;
37049;SDS011;22958;51.232;6.826;2023-05-20T08:17:37;6.90;;;4.17;;
37049;SDS011;22958;51.232;6.826;2023-05-20T08:20:02;8.73;;;4.97;;
37049;SDS011;22958;51.232;6.826;2023-05-20T08:24:55;9.52;;;4.50;;
37049;SDS011;22958;51.232;6.826;2023-05-20T08:27:20;17.47;;;4.83;;
37049;SDS011;22958;51.232;6.826;2023-05-20T08:29:46;12.63;;;5.63;;
37049;SDS011;22958;51.232;6.826;2023-05-20T08:32:11;14.27;;;4.33;;
37049;SDS011;22958;51.232;6.826;2023-05-20T08:34:37;11.13;;;4.60;;
37049;SDS011;22958;51.232;6.826;2023-05-20T08:37:02;10.70;;;4.77;;
37049;SDS011;22958;51.232;6.826;2023-05-20T08:39:28;11.70;;;5.30;;
37049;SDS011;22958;51.232;6.826;2023-05-20T08:41:53;7.00;;;3.73;;
37049;SDS011;22958;51.232;6.826;2023-05-20T08:44:19;13.97;;;4.97;;
37049;SDS011;22958;51.232;6.826;2023-05-20T08:46:46;9.63;;;4.75;;
37049;SDS011;22958;51.232;6.826;2023-05-20T08:49:12;8.57;;;4.55;;
37049;SDS011;22958;51.232;6.826;2023-05-20T08:51:38;10.30;;;5.33;;
37049;SDS011;22958;51.232;6.826;2023-05-20T08:54:04;9.30;;;4.73;;
37049;SDS011;22958;51.232;6.826;2023-05-20T08:56:32;11.70;;;5.00;;
37049;SDS011;22958;51.232;6.826;2023-05-20T08:58:58;20.70;;;5.70;;
37049;SDS011;22958;51.232;6.826;2023-05-20T09:01:23;7.67;;;4.83;;
37049;SDS011;22958;51.232;6.826;2023-05-20T09:03:52;7.88;;;4.75;;
37049;SDS011;22958;51.232;6.826;2023-05-20T09:06:17;9.53;;;4.97;;
37049;SDS011;22958;51.232;6.826;2023-05-20T09:08:49;13.02;;;5.28;;
37049;SDS011;22958;51.232;6.826;2023-05-20T09:11:15;10.88;;;4.65;;
37049;SDS011;22958;51.232;6.826;2023-05-20T09:13:41;13.83;;;4.90;;
37049;SDS011;22958;51.232;6.826;2023-05-20T09:16:08;11.43;;;4.60;;
37049;SDS011;22958;51.232;6.826;2023-05-20T09:18:37;10.10;;;4.78;;
37049;SDS011;22958;51.232;6.826;2023-05-20T09:21:04;9.10;;;5.00;;
37049;SDS011;22958;51.232;6.826;2023-05-20T09:23:35;18.27;;;6.32;;
37049;SDS011;22958;51.232;6.826;2023-05-20T09:26:02;11.60;;;5.30;;
37049;SDS011;22958;51.232;6.826;2023-05-20T09:28:28;9.27;;;5.35;;
37049;SDS011;22958;51.232;6.826;2023-05-20T09:30:57;7.27;;;4.83;;
37049;SDS011;22958;51.232;6.826;2023-05-20T09:33:26;7.70;;;4.80;;
37049;SDS011;22958;51.232;6.826;2023-05-20T09:35:59;9.38;;;5.15;;
37049;SDS011;22958;51.232;6.826;2023-05-20T09:38:29;8.70;;;4.82;;
37049;SDS011;22958;51.232;6.826;2023-05-20T09:41:02;12.95;;;5.30;;
37049;SDS011;22958;51.232;6.826;2023-05-20T09:43:32;8.18;;;4.85;;
37049;SDS011;22958;51.232;6.826;2023-05-20T09:45:58;10.63;;;5.22;;
37049;SDS011;22958;51.232;6.826;2023-05-20T09:48:24;15.18;;;6.00;;
37049;SDS011;22958;51.232;6.826;2023-05-20T09:53:19;11.70;;;4.75;;
37049;SDS011;22958;51.232;6.826;2023-05-20T09:55:46;13.35;;;5.10;;
37049;SDS011;22958;51.232;6.826;2023-05-20T09:58:12;7.88;;;5.30;;
37049;SDS011;22958;51.232;6.826;2023-05-20T10:00:38;7.28;;;4.43;;
37049;SDS011;22958;51.232;6.826;2023-05-20T10:03:03;10.70;;;5.03;;
37049;SDS011;22958;51.232;6.826;2023-05-20T10:05:30;7.57;;;4.57;;
37049;SDS011;22958;51.232;6.826;2023-05-20T10:08:05;12.20;;;5.35;;
37049;SDS011;22958;51.232;6.826;2023-05-20T10:10:49;9.63;;;5.25;;
37049;SDS011;22958;51.232;6.826;2023-05-20T10:16:47;9.25;;;5.25;;
37049;SDS011;22958;51.232;6.826;2023-05-20T10:19:30;10.23;;;5.25;;
37049;SDS011;22958;51.232;6.826;2023-05-20T10:22:03;10.10;;;5.50;;
37049;SDS011;22958;51.232;6.826;2023-05-20T10:24:32;8.93;;;5.35;;
37049;SDS011;22958;51.232;6.826;2023-05-20T10:27:00;8.27;;;5.47;;
37049;SDS011;22958;51.232;6.826;2023-05-20T10:29:27;13.07;;;5.63;;
37049;SDS011;22958;51.232;6.826;2023-05-20T10:31:53;14.15;;;6.97;;
37049;SDS011;22958;51.232;6.826;2023-05-20T10:34:20;14.40;;;5.60;;
37049;SDS011;22958;51.232;6.826;2023-05-20T10:36:56;21.30;;;6.35;;
37049;SDS011;22958;51.232;6.826;2023-05-20T10:39:29;16.67;;;5.82;;
37049;SDS011;22958;51.232;6.826;2023-05-20T10:42:07;8.65;;;5.40;;
37049;SDS011;22958;51.232;6.826;2023-05-20T10:44:40;13.65;;;5.90;;
37049;SDS011;22958;51.232;6.826;2023-05-20T10:47:07;11.40;;;5.95;;
37049;SDS011;22958;51.232;6.826;2023-05-20T10:49:33;10.13;;;6.00;;
37049;SDS011;22958;51.232;6.826;2023-05-20T10:52:00;9.85;;;5.70;;
37049;SDS011;22958;51.232;6.826;2023-05-20T10:54:26;11.32;;;6.60;;
37049;SDS011;22958;51.232;6.826;2023-05-20T10:56:53;14.77;;;6.25;;
37049;SDS011;22958;51.232;6.826;2023-05-20T10:59:19;10.43;;;6.17;;
37049;SDS011;22958;51.232;6.826;2023-05-20T11:01:48;9.80;;;5.72;;
37049;SDS011;22958;51.232;6.826;2023-05-20T11:04:14;12.25;;;6.03;;
37049;SDS011;22958;51.232;6.826;2023-05-20T11:06:48;10.65;;;6.22;;
37049;SDS011;22958;51.232;6.826;2023-05-20T11:09:21;14.07;;;6.65;;
37049;SDS011;22958;51.232;6.826;2023-05-20T11:11:46;11.53;;;6.73;;
37049;SDS011;22958;51.232;6.826;2023-05-20T11:14:13;11.25;;;6.10;;
37049;SDS011;22958;51.232;6.826;2023-05-20T11:16:39;9.05;;;5.90;;
37049;SDS011;22958;51.232;6.826;2023-05-20T11:19:06;12.40;;;6.65;;
37049;SDS011;22958;51.232;6.826;2023-05-20T11:21:32;12.57;;;6.18;;
37049;SDS011;22958;51.232;6.826;2023-05-20T11:23:58;12.40;;;6.33;;
37049;SDS011;22958;51.232;6.826;2023-05-20T11:26:24;8.57;;;6.40;;
37049;SDS011;22958;51.232;6.826;2023-05-20T11:28:49;8.73;;;6.03;;
37049;SDS011;22958;51.232;6.826;2023-05-20T11:31:15;12.25;;;6.43;;
37049;SDS011;22958;51.232;6.826;2023-05-20T11:33:42;11.60;;;6.47;;
37049;SDS011;22958;51.232;6.826;2023-05-20T11:36:08;10.70;;;5.67;;
37049;SDS011;22958;51.232;6.826;2023-05-20T11:41:00;10.27;;;6.18;;
37049;SDS011;22958;51.232;6.826;2023-05-20T11:43:26;13.63;;;5.93;;
37049;SDS011;22958;51.232;6.826;2023-05-20T11:45:52;16.27;;;6.13;;
37049;SDS011;22958;51.232;6.826;2023-05-20T11:48:20;9.88;;;5.85;;
37049;SDS011;22958;51.232;6.826;2023-05-20T11:50:46;13.63;;;6.60;;
37049;SDS011;22958;51.232;6.826;2023-05-20T11:53:18;13.57;;;6.60;;
37049;SDS011;22958;51.232;6.826;2023-05-20T11:58:15;10.10;;;5.93;;
37049;SDS011;22958;51.232;6.826;2023-05-20T12:00:43;13.48;;;5.57;;
37049;SDS011;22958;51.232;6.826;2023-05-20T12:03:18;13.30;;;6.77;;
37049;SDS011;22958;51.232;6.826;2023-05-20T12:05:44;12.68;;;6.15;;
37049;SDS011;22958;51.232;6.826;2023-05-20T12:08:11;12.30;;;5.93;;
37049;SDS011;22958;51.232;6.826;2023-05-20T12:10:37;18.83;;;6.23;;
37049;SDS011;22958;51.232;6.826;2023-05-20T12:13:02;12.83;;;6.47;;
37049;SDS011;22958;51.232;6.826;2023-05-20T12:17:54;9.95;;;6.40;;
37049;SDS011;22958;51.232;6.826;2023-05-20T12:20:20;13.00;;;5.40;;
37049;SDS011;22958;51.232;6.826;2023-05-20T12:22:48;9.80;;;6.15;;
37049;SDS011;22958;51.232;6.826;2023-05-20T12:25:15;13.13;;;5.93;;
37049;SDS011;22958;51.232;6.826;2023-05-20T12:27:41;14.85;;;6.40;;
37049;SDS011;22958;51.232;6.826;2023-05-20T12:30:13;8.02;;;5.40;;
37049;SDS011;22958;51.232;6.826;2023-05-20T12:32:41;9.23;;;5.22;;
37049;SDS011;22958;51.232;6.826;2023-05-20T12:35:07;11.70;;;6.63;;
37049;SDS011;22958;51.232;6.826;2023-05-20T12:37:33;14.65;;;5.55;;
37049;SDS011;22958;51.232;6.826;2023-05-20T12:39:58;8.55;;;5.80;;
37049;SDS011;22958;51.232;6.826;2023-05-20T12:42:24;10.17;;;6.03;;
37049;SDS011;22958;51.232;6.826;2023-05-20T12:44:50;9.38;;;5.65;;
37049;SDS011;22958;51.232;6.826;2023-05-20T12:47:15;8.67;;;5.23;;
37049;SDS011;22958;51.232;6.826;2023-05-20T12:49:41;9.37;;;5.77;;
37049;SDS011;22958;51.232;6.826;2023-05-20T12:52:06;9.70;;;5.33;;
37049;SDS011;22958;51.232;6.826;2023-05-20T12:54:32;15.10;;;5.73;;
37049;SDS011;22958;51.232;6.826;2023-05-20T12:56:57;9.10;;;5.60;;
37049;SDS011;22958;51.232;6.826;2023-05-20T12:59:23;9.45;;;5.00;;
37049;SDS011;22958;51.232;6.826;2023-05-20T13:01:49;8.57;;;4.70;;
37049;SDS011;22958;51.232;6.826;2023-05-20T13:04:14;8.17;;;4.70;;
37049;SDS011;22958;51.232;6.826;2023-05-20T13:06:41;8.05;;;4.47;;
37049;SDS011;22958;51.232;6.826;2023-05-20T13:09:06;10.10;;;4.72;;
37049;SDS011;22958;51.232;6.826;2023-05-20T13:11:32;8.18;;;4.85;;
37049;SDS011;22958;51.232;6.826;2023-05-20T13:13:58;8.52;;;4.53;;
37049;SDS011;22958;51.232;6.826;2023-05-20T13:16:24;7.47;;;4.40;;
37049;SDS011;22958;51.232;6.826;2023-05-20T13:18:49;5.18;;;3.70;;
37049;SDS011;22958;51.232;6.826;2023-05-20T13:21:15;12.25;;;3.80;;
37049;SDS011;22958;51.232;6.826;2023-05-20T13:23:41;7.60;;;4.28;;
37049;SDS011;22958;51.232;6.826;2023-05-20T13:26:07;5.90;;;4.63;;
37049;SDS011;22958;51.232;6.826;2023-05-20T13:28:33;7.40;;;4.63;;
37049;SDS011;22958;51.232;6.826;2023-05-20T13:30:58;6.90;;;4.17;;
37049;SDS011;22958;51.232;6.826;2023-05-20T13:33:25;7.88;;;3.78;;
37049;SDS011;22958;51.232;6.826;2023-05-20T13:35:51;8.67;;;4.73;;
37049;SDS011;22958;51.232;6.826;2023-05-20T13:38:16;8.53;;;4.97;;
37049;SDS011;22958;51.232;6.826;2023-05-20T13:40:42;10.73;;;4.50;;
37049;SDS011;22958;51.232;6.826;2023-05-20T13:43:07;5.63;;;4.30;;
37049;SDS011;22958;51.232;6.826;2023-05-20T13:45:33;11.60;;;3.73;;
37049;SDS011;22958;51.232;6.826;2023-05-20T13:47:58;12.13;;;3.83;;
37049;SDS011;22958;51.232;6.826;2023-05-20T13:50:24;7.77;;;4.07;;
37049;SDS011;22958;51.232;6.826;2023-05-20T13:52:50;11.00;;;4.20;;
37049;SDS011;22958;51.232;6.826;2023-05-20T13:55:15;8.40;;;3.77;;
37049;SDS011;22958;51.232;6.826;2023-05-20T13:57:41;6.77;;;4.30;;
37049;SDS011;22958;51.232;6.826;2023-05-20T14:00:07;4.93;;;3.60;;
37049;SDS011;22958;51.232;6.826;2023-05-20T14:02:33;8.63;;;4.25;;
37049;SDS011;22958;51.232;6.826;2023-05-20T14:04:59;9.20;;;4.38;;
37049;SDS011;22958;51.232;6.826;2023-05-20T14:07:25;13.38;;;4.60;;
37049;SDS011;22958;51.232;6.826;2023-05-20T14:09:50;10.23;;;4.20;;
37049;SDS011;22958;51.232;6.826;2023-05-20T14:12:16;11.37;;;4.50;;
37049;SDS011;22958;51.232;6.826;2023-05-20T14:14:41;6.87;;;4.03;;
37049;SDS011;22958;51.232;6.826;2023-05-20T14:17:07;6.73;;;4.00;;
37049;SDS011;22958;51.232;6.826;2023-05-20T14:19:32;12.40;;;4.70;;
37049;SDS011;22958;51.232;6.826;2023-05-20T14:21:58;10.57;;;4.30;;
37049;SDS011;22958;51.232;6.826;2023-05-20T14:24:25;11.43;;;4.40;;
37049;SDS011;22958;51.232;6.826;2023-05-20T14:26:53;7.93;;;4.28;;
37049;SDS011;22958;51.232;6.826;2023-05-20T14:29:19;6.07;;;4.38;;
37049;SDS011;22958;51.232;6.826;2023-05-20T14:31:44;6.80;;;4.10;;
37049;SDS011;22958;51.232;6.826;2023-05-20T14:34:10;9.20;;;4.50;;
37049;SDS011;22958;51.232;6.826;2023-05-20T14:36:36;9.33;;;3.90;;
37049;SDS011;22958;51.232;6.826;2023-05-20T14:39:01;7.88;;;4.00;;
37049;SDS011;22958;51.232;6.826;2023-05-20T14:41:27;9.98;;;4.40;;
37049;SDS011;22958;51.232;6.826;2023-05-20T14:43:53;7.03;;;4.10;;
37049;SDS011;22958;51.232;6.826;2023-05-20T14:46:19;7.47;;;4.37;;
37049;SDS011;22958;51.232;6.826;2023-05-20T14:48:44;8.52;;;4.15;;
37049;SDS011;22958;51.232;6.826;2023-05-20T14:51:10;9.43;;;3.80;;
37049;SDS011;22958;51.232;6.826;2023-05-20T14:53:36;5.18;;;3.50;;
37049;SDS011;22958;51.232;6.826;2023-05-20T14:56:01;8.37;;;3.83;;
37049;SDS011;22958;51.232;6.826;2023-05-20T14:58:27;7.55;;;4.65;;
37049;SDS011;22958;51.232;6.826;2023-05-20T15:00:53;7.83;;;4.20;;